CheckWX is a tool to help pilots better visualize weather data.  It is not intended as a substitute for an official pre-flight weather briefing.

12:43:02 UTC

KAUO METAR
Auburn University Regional Airport
Auburn, Alabama, USA
Current

47 mins ago

KAUO 181156Z AUTO 33008KT 10SM FEW012 OVC039 10/10 A3009 RMK AO2 SLP209 60009 70010 T01000100 10139 20100 53020
Observed
Feb-18 @ 11:56 UTC
Wind
  • 330° at 8 KTS
Visibility
10 SM
Flight Rules
VFR
Cloud Levels
  • Few at 1,200' AGL
  • Overcast at 3,900' AGL
Temperature
10°C / 50°F
Dewpoint
10°C / 50°F
Humidity
100%
Altimeter
30.09" Hg
Pressure
1020.9 hPa
Previous

2 hours ago

KAUO 181056Z AUTO 34005KT 10SM OVC037 11/ A3005 RMK AO2 RAE23 SLP194 P0001 T0106
Observed
Feb-18 @ 10:56 UTC
Wind
  • 340° at 5 KTS
Visibility
10 SM
Flight Rules
VFR
Cloud Levels
  • Overcast at 3,700' AGL
Temperature
11°C / 52°F
Altimeter
30.05" Hg
Pressure
1019.4 hPa
Current Rain
0.01"
Previous

3 hours ago

KAUO 180956Z AUTO 35006KT 10SM -RA OVC041 11/ A3002 RMK AO2 RAB11 SLP183 P0008 T0111
Observed
Feb-18 @ 09:56 UTC
Wind
  • 350° at 6 KTS
Visibility
10 SM
Flight Rules
VFR
Conditions
Light Rain
Cloud Levels
  • Overcast at 4,100' AGL
Temperature
11°C / 52°F
Altimeter
30.02" Hg
Pressure
1018.3 hPa
Current Rain
0.08"